CYAMCYQT

Guest
Details From CYAM - Sault Ste Marie
To CYQT - Thunder Bay
Flight Number -
Tags decoded
Created
Modified
Stats Distance 226 nm / 419 km
Max Altitude 0 ft / 0 m
Waypoints 2
Social Downloads 1
Likes 0
Share VATSIM

Download

Looking for another format? Having issues loading an existing format? Contact us
Advertisement - Login to hide

Notes

Requested: CYAM V300 CYQT Unmatched points: V300

Route

CYAM CYQT

ID Type Via Altitude Latitude Longitude Leg Dist Tot Dist Heading (true) Name
O CYAM APT - 0 ft / 0 m 46.48432˚ -84.50828˚ - 0 nm - Sault Ste Marie
O CYQT APT - 0 ft / 0 m 48.37204˚ -89.32512˚ 226 nm 226 nm 302° / 298° Thunder Bay

Altitude Profile

Advertisement - Login to hide

Weather


0- 5 10 15 20 25 30 35+ Temperature / ° C

Clouds and Precipitation
Forecast for 2017-12-17 06:00 UTC. Updated an hour ago

Ground ~20,000 ft ~40,000 ft Winds

CYAM

Details ICAO CYAM (YAM)
Name Sault Ste Marie
Region Canada
Timezone America/Toronto (UTC-5.0)
Stats Elevation 630 ft / 192 m (AMSL)
Location 46.484318° -84.508282°
Runways 2
Magnetic Variation 7.394° W

METAR

CYAM 170600Z 09005KT 15SM SCT110 M19/M22 A3029 RMK AC4 SLP278

Decode

TAF

TAF TAF CYAM 170138Z 1702/1714 06006KT P6SM BKN120 RMK NXT FCST BY 170800Z

Decode

Departure Runways

ID Width Length Bearing (true) Bearing (mag) Surface Threshold Offset Overrun Length
04 200 ft / 61 m 6,007 ft / 1,831 m 32.80° 40.19° Asphalt 0 ft / 0 m 0 ft / 0 m
12 200 ft / 61 m 6,006 ft / 1,831 m 107.88° 115.27° Asphalt 0 ft / 0 m 0 ft / 0 m
22 200 ft / 61 m 6,007 ft / 1,831 m 212.80° 220.19° Asphalt 0 ft / 0 m 0 ft / 0 m
30 200 ft / 61 m 6,006 ft / 1,831 m 287.90° 295.29° Asphalt 0 ft / 0 m 0 ft / 0 m

CYQT

Details ICAO CYQT (YQT)
Name Thunder Bay
Region Canada
Timezone America/Thunder_Bay (UTC-5.0)
Stats Elevation 653 ft / 199 m (AMSL)
Location 48.372036° -89.325122°
Runways 2
Magnetic Variation 3.735° W

METAR

CYQT 170600Z 26003KT 15SM -SN SCT010 OVC030 M10/M12 A3017 RMK SF3SC5 SLP236

Decode

TAF

TAF TAF CYQT 170138Z 1702/1714 VRB03KT P6SM -SN OVC012 TEMPO 1702/1706 6SM -SN OVC008 FM170600 16008KT P6SM OVC012 TEMPO 1706/1712 4SM -SN BKN006 OVC012 BECMG 1706/1708 25005KT FM171200 28005KT P6SM SCT020 OVC025 TEMPO 1712/1714 BKN020 RMK NXT FCST BY 170800Z

Decode

Destination Runways

ID Width Length Bearing (true) Bearing (mag) Surface Threshold Offset Overrun Length
07 200 ft / 61 m 6,206 ft / 1,892 m 70.47° 74.20° Asphalt 0 ft / 0 m 0 ft / 0 m
12 200 ft / 61 m 5,305 ft / 1,617 m 121.57° 125.30° Asphalt 0 ft / 0 m 0 ft / 0 m
25 200 ft / 61 m 6,206 ft / 1,892 m 250.49° 254.22° Asphalt 0 ft / 0 m 0 ft / 0 m
30 200 ft / 61 m 5,305 ft / 1,617 m 301.58° 305.31° Asphalt 0 ft / 0 m 0 ft / 0 m

Approach Navaids

Runway Type Ident Frequency Range Bearing (true) Bearing (mag) Slope Elevation
07 Localiser IQT 109.50 MHz 18 nm / 33 km 70.53° 74.26° - 653 ft / 199 m (AMSL)
07 Glidescope IQT 109.50 MHz 10 nm / 19 km 74.00° 77.73° 3.00° 653 ft / 199 m (AMSL)